Time;durP1;ratioP1;P1;durP2;ratioP2;P2;SDS_P1;SDS_P2;PMS_P1;PMS_P2;Temp;Humidity;BMP_temperature;BMP_pressure;BME280_temperature;BME280_humidity;BME280_pressure;Samples;Min_cycle;Max_cycle;Signal;HPM_P1;HPM_P2
2022/02/19 00:00:07;;;;;;;5.80;1.27;;;6.40;99.90;;;;;;5063073;28;20582;-52
2022/02/19 00:02:38;;;;;;;5.17;1.13;;;6.40;99.90;;;;;;5062846;28;20271;-49
2022/02/19 00:05:06;;;;;;;4.47;1.13;;;6.40;99.90;;;;;;5038309;28;21136;-47
2022/02/19 00:07:34;;;;;;;6.33;1.83;;;6.40;99.90;;;;;;5064197;28;20190;-45
2022/02/19 00:10:00;;;;;;;2.20;1.40;;;6.40;99.90;;;;;;5060269;28;20253;-46
2022/02/19 00:12:28;;;;;;;6.93;1.73;;;6.40;99.90;;;;;;5063943;28;20206;-50
2022/02/19 00:14:55;;;;;;;4.13;1.50;;;6.30;99.90;;;;;;5061356;28;20209;-48
2022/02/19 00:17:22;;;;;;;5.17;1.63;;;6.40;99.90;;;;;;5063763;28;20195;-49
2022/02/19 00:19:50;;;;;;;5.93;1.40;;;6.40;99.90;;;;;;5054335;28;20215;-47
2022/02/19 00:22:17;;;;;;;2.60;0.90;;;6.40;99.90;;;;;;5056638;28;20194;-48
2022/02/19 00:24:44;;;;;;;5.03;1.53;;;6.40;99.90;;;;;;5063760;28;20277;-51
2022/02/19 00:27:10;;;;;;;10.07;1.70;;;6.30;99.90;;;;;;5061861;28;20191;-46
2022/02/19 00:29:38;;;;;;;7.70;1.50;;;6.10;99.90;;;;;;5063164;28;20618;-49
2022/02/19 00:32:07;;;;;;;9.83;1.30;;;5.90;99.90;;;;;;5060408;28;20223;-48
2022/02/19 00:34:34;;;;;;;8.77;1.87;;;5.70;99.90;;;;;;5064639;28;20206;-49
2022/02/19 00:37:01;;;;;;;6.63;1.10;;;5.60;99.90;;;;;;5045565;28;20203;-47
2022/02/19 00:39:29;;;;;;;7.50;2.03;;;5.50;99.90;;;;;;5064071;28;20207;-51
2022/02/19 00:41:56;;;;;;;7.37;1.97;;;5.40;99.90;;;;;;5059731;28;20248;-49
2022/02/19 00:44:24;;;;;;;9.30;1.87;;;5.40;99.90;;;;;;5063046;28;20630;-46
2022/02/19 00:46:52;;;;;;;8.87;1.50;;;5.40;99.90;;;;;;5060214;28;20226;-45
2022/02/19 00:49:19;;;;;;;9.17;2.13;;;5.40;99.90;;;;;;5063665;28;20226;-46
2022/02/19 00:51:46;;;;;;;6.83;1.60;;;5.40;99.90;;;;;;5055372;28;20229;-48
2022/02/19 00:54:13;;;;;;;4.83;1.43;;;5.50;99.90;;;;;;5053617;28;20197;-48
2022/02/19 00:56:39;;;;;;;8.43;1.83;;;5.50;99.90;;;;;;5063919;28;20198;-49
2022/02/19 00:59:08;;;;;;;9.73;1.90;;;5.40;99.90;;;;;;5059097;28;20218;-48
2022/02/19 01:01:34;;;;;;;3.83;1.27;;;5.30;99.90;;;;;;5061807;28;20191;-48
2022/02/19 01:04:18;;;;;;;9.47;1.50;;;5.30;99.90;;;;;;5061619;28;20256;-46
2022/02/19 01:06:45;;;;;;;4.20;1.53;;;5.20;99.90;;;;;;5061068;28;20646;-44
2022/02/19 01:09:12;;;;;;;5.53;1.40;;;5.20;99.90;;;;;;5046669;28;21001;-46
2022/02/19 01:11:39;;;;;;;5.07;1.37;;;5.10;99.90;;;;;;5062352;28;20206;-45
2022/02/19 01:14:07;;;;;;;7.33;1.67;;;5.10;99.90;;;;;;5059145;28;20968;-45
2022/02/19 01:16:34;;;;;;;5.40;1.03;;;5.00;99.90;;;;;;5062112;28;20194;-45
2022/02/19 01:19:01;;;;;;;4.60;0.73;;;4.90;99.90;;;;;;5058667;28;20230;-45
2022/02/19 01:21:29;;;;;;;3.17;0.77;;;4.90;99.90;;;;;;5063588;28;20202;-44
2022/02/19 01:23:56;;;;;;;8.33;1.60;;;4.90;99.90;;;;;;5048191;28;20218;-45
2022/02/19 01:26:23;;;;;;;5.47;1.20;;;4.90;99.90;;;;;;5063156;28;20209;-45
2022/02/19 01:28:53;;;;;;;7.83;1.03;;;4.80;99.90;;;;;;5059130;28;20737;-43
2022/02/19 01:31:24;;;;;;;1.83;0.80;;;4.80;99.90;;;;;;5064223;28;20199;-41
2022/02/19 01:33:52;;;;;;;5.10;1.70;;;4.70;99.90;;;;;;5059640;28;20222;-46
2022/02/19 01:36:19;;;;;;;3.37;1.30;;;4.60;99.90;;;;;;5080674;28;20206;-46
2022/02/19 01:38:47;;;;;;;5.80;1.17;;;4.60;99.90;;;;;;5073531;28;20268;-45
2022/02/19 01:41:14;;;;;;;6.33;1.00;;;4.50;99.90;;;;;;5049404;28;20965;-44
2022/02/19 01:43:42;;;;;;;4.33;1.20;;;4.40;99.90;;;;;;5061583;28;20199;-43
2022/02/19 01:46:09;;;;;;;3.30;1.13;;;4.40;99.90;;;;;;5049165;28;20279;-44
2022/02/19 01:48:37;;;;;;;3.17;1.20;;;4.30;99.90;;;;;;5057177;28;20194;-43
2022/02/19 01:51:03;;;;;;;2.93;1.13;;;4.20;99.90;;;;;;5052838;28;20210;-46
2022/02/19 01:53:54;;;;;;;4.73;1.37;;;4.20;99.90;;;;;;5057325;28;20681;-46
2022/02/19 01:56:31;;;;;;;4.90;0.83;;;4.20;99.90;;;;;;5047708;28;20202;-44
2022/02/19 01:59:16;;;;;;;6.77;0.87;;;4.10;99.90;;;;;;5054202;28;20846;-45
2022/02/19 02:01:58;;;;;;;5.07;1.00;;;4.10;99.90;;;;;;5096502;28;20737;-46
2022/02/19 02:04:34;;;;;;;2.93;0.80;;;4.20;99.90;;;;;;5062367;28;20289;-46
2022/02/19 02:07:03;;;;;;;8.87;1.90;;;4.20;99.90;;;;;;5059015;28;20190;-44
2022/02/19 02:09:32;;;;;;;3.70;1.47;;;4.30;99.90;;;;;;5062087;28;20299;-44
2022/02/19 02:12:03;;;;;;;5.10;1.27;;;4.30;99.90;;;;;;5038895;28;20263;-44
2022/02/19 02:14:31;;;;;;;9.03;1.47;;;4.40;99.90;;;;;;5065149;28;20289;-44
2022/02/19 02:17:06;;;;;;;6.33;1.67;;;4.50;99.90;;;;;;5061254;28;20917;-45
2022/02/19 02:19:34;;;;;;;6.73;1.33;;;4.50;99.90;;;;;;5066679;28;20264;-44
2022/02/19 02:22:15;;;;;;;11.77;2.13;;;4.60;99.90;;;;;;5063342;28;20975;-43
2022/02/19 02:24:42;;;;;;;11.10;2.37;;;4.70;99.90;;;;;;5065431;28;20206;-44
2022/02/19 02:27:13;;;;;;;6.90;2.30;;;4.70;99.90;;;;;;5048638;28;20210;-44
2022/02/19 02:29:42;;;;;;;13.37;2.10;;;4.70;99.90;;;;;;5064762;28;20233;-48
2022/02/19 02:32:10;;;;;;;11.17;2.00;;;4.70;99.90;;;;;;5062363;28;20221;-46
2022/02/19 02:34:48;;;;;;;11.50;1.60;;;4.80;99.90;;;;;;5067022;28;20245;-46
2022/02/19 02:37:17;;;;;;;14.87;2.93;;;4.80;99.90;;;;;;5064966;28;20297;-44
2022/02/19 02:39:46;;;;;;;12.47;2.03;;;4.80;99.90;;;;;;5065825;28;20294;-46
2022/02/19 02:42:14;;;;;;;11.90;2.30;;;4.90;99.90;;;;;;5047261;28;20210;-45
2022/02/19 02:44:43;;;;;;;11.23;2.20;;;4.90;99.90;;;;;;5062021;28;20744;-48
2022/02/19 02:47:13;;;;;;;9.33;1.97;;;4.90;99.90;;;;;;5062905;28;20195;-45
2022/02/19 02:49:40;;;;;;;9.07;2.10;;;5.00;99.90;;;;;;5066446;28;20242;-47
2022/02/19 02:52:09;;;;;;;10.27;2.37;;;5.00;99.90;;;;;;5062061;28;21079;-45
2022/02/19 02:54:42;;;;;;;12.10;2.13;;;5.10;99.90;;;;;;5065200;28;20640;-46
2022/02/19 02:57:10;;;;;;;10.33;2.53;;;5.10;99.90;;;;;;5047512;28;20203;-47
2022/02/19 02:59:37;;;;;;;9.93;1.83;;;5.10;99.90;;;;;;5064889;28;20211;-45
2022/02/19 03:02:05;;;;;;;15.33;2.47;;;5.20;99.90;;;;;;5060672;28;20190;-46
2022/02/19 03:04:33;;;;;;;10.23;2.30;;;5.20;99.90;;;;;;5065158;28;20205;-47
2022/02/19 03:07:00;;;;;;;9.20;2.53;;;5.20;99.90;;;;;;5060590;28;20738;-47
2022/02/19 03:09:28;;;;;;;19.30;3.83;;;5.30;99.90;;;;;;5061898;28;20234;-48
2022/02/19 03:11:56;;;;;;;13.97;2.83;;;5.20;99.90;;;;;;5060622;28;20199;-46
2022/02/19 03:14:25;;;;;;;10.13;3.10;;;5.10;99.90;;;;;;5050603;28;20565;-46
2022/02/19 03:16:53;;;;;;;16.63;3.50;;;4.90;99.90;;;;;;5061457;28;20244;-45
2022/02/19 03:19:20;;;;;;;9.33;2.40;;;4.70;99.90;;;;;;5064389;28;20226;-43
2022/02/19 03:21:47;;;;;;;6.03;2.07;;;4.60;99.90;;;;;;5062214;28;20248;-42
2022/02/19 03:24:14;;;;;;;12.53;2.10;;;4.60;99.90;;;;;;5062894;28;20175;-42
2022/02/19 03:26:40;;;;;;;8.43;1.57;;;4.50;99.90;;;;;;5064321;28;20213;-43
2022/02/19 03:29:15;;;;;;;8.53;1.53;;;4.50;99.90;;;;;;5045926;28;20227;-41
2022/02/19 03:31:45;;;;;;;5.10;1.73;;;4.50;99.90;;;;;;5093016;27;20332;-42
2022/02/19 03:34:30;;;;;;;5.57;1.40;;;4.50;99.90;;;;;;5064808;28;20681;-47
2022/02/19 03:36:57;;;;;;;3.80;1.03;;;4.50;99.90;;;;;;5060586;28;20203;-40
2022/02/19 03:39:24;;;;;;;2.20;0.80;;;4.50;99.90;;;;;;5064507;28;20222;-41
2022/02/19 03:41:52;;;;;;;1.70;0.60;;;4.40;99.90;;;;;;5095788;27;20260;-43
2022/02/19 03:44:22;;;;;;;4.10;0.33;;;4.20;99.90;;;;;;5064466;28;20225;-43
2022/02/19 03:46:58;;;;;;;2.80;0.43;;;4.10;99.90;;;;;;5045328;28;20209;-43
2022/02/19 03:49:30;;;;;;;1.10;0.37;;;4.00;99.90;;;;;;5064083;28;20718;-44
2022/02/19 03:51:57;;;;;;;3.43;0.47;;;4.00;99.90;;;;;;5061941;28;20198;-45
2022/02/19 03:54:24;;;;;;;3.80;0.63;;;4.00;99.90;;;;;;5064414;28;20241;-50
2022/02/19 03:56:52;;;;;;;3.17;0.30;;;3.90;99.90;;;;;;5061385;28;20233;-44
2022/02/19 03:59:19;;;;;;;3.53;0.50;;;3.90;99.90;;;;;;5063289;28;20258;-45
2022/02/19 04:01:48;;;;;;;3.17;0.40;;;3.90;99.90;;;;;;5048259;28;20205;-45
2022/02/19 04:04:20;;;;;;;2.03;0.40;;;3.90;99.90;;;;;;5062274;28;20206;-45
2022/02/19 04:06:46;;;;;;;2.13;0.50;;;3.90;99.90;;;;;;5062310;28;20691;-44
2022/02/19 04:09:17;;;;;;;1.37;0.50;;;3.90;99.90;;;;;;5062524;28;20271;-44
2022/02/19 04:11:46;;;;;;;3.53;0.80;;;3.90;99.90;;;;;;5062380;28;20226;-45
2022/02/19 04:14:15;;;;;;;3.90;0.50;;;3.90;99.90;;;;;;5063543;28;20222;-44
2022/02/19 04:16:53;;;;;;;3.30;0.93;;;4.00;99.90;;;;;;5043714;28;20206;-46
2022/02/19 04:19:24;;;;;;;2.77;0.40;;;4.00;99.90;;;;;;5063453;28;20221;-51
2022/02/19 04:21:50;;;;;;;4.60;0.73;;;4.00;99.90;;;;;;5060486;28;20627;-44
2022/02/19 04:24:20;;;;;;;2.23;0.60;;;4.10;99.90;;;;;;5061504;28;20191;-42
2022/02/19 04:26:54;;;;;;;4.90;1.27;;;4.10;99.90;;;;;;5060523;28;20199;-45
2022/02/19 04:29:23;;;;;;;4.27;1.10;;;4.20;99.90;;;;;;5063184;28;20234;-47
2022/02/19 04:31:55;;;;;;;4.57;0.77;;;4.20;99.90;;;;;;5046324;28;20641;-43
2022/02/19 04:34:27;;;;;;;2.67;1.03;;;4.20;99.90;;;;;;5063019;28;20198;-44
2022/02/19 04:36:54;;;;;;;6.67;1.30;;;4.20;99.90;;;;;;5060350;28;20213;-47
2022/02/19 04:39:26;;;;;;;4.67;1.30;;;4.10;99.90;;;;;;5063420;28;20275;-47
2022/02/19 04:41:58;;;;;;;6.03;1.10;;;4.10;99.90;;;;;;5059568;28;20206;-43
2022/02/19 04:44:25;;;;;;;7.60;1.07;;;4.10;99.90;;;;;;5063341;28;20294;-49
2022/02/19 04:46:55;;;;;;;3.33;0.80;;;4.10;99.90;;;;;;5048771;28;20237;-50
2022/02/19 04:49:22;;;;;;;5.13;1.03;;;4.10;99.90;;;;;;5061179;28;20219;-43
2022/02/19 04:51:49;;;;;;;2.40;0.93;;;4.10;99.90;;;;;;5060771;28;20211;-46
2022/02/19 04:54:17;;;;;;;3.93;0.60;;;4.00;99.90;;;;;;5061685;28;20914;-44
2022/02/19 04:56:44;;;;;;;8.10;1.07;;;4.00;99.90;;;;;;5061449;28;20568;-44
2022/02/19 04:59:11;;;;;;;2.10;0.60;;;4.00;99.90;;;;;;5060338;28;20375;-42
2022/02/19 05:01:42;;;;;;;4.53;0.80;;;4.00;99.90;;;;;;5051110;28;20891;-43
2022/02/19 05:04:14;;;;;;;9.60;1.23;;;4.00;99.90;;;;;;5047134;28;20206;-47
2022/02/19 05:07:01;;;;;;;3.40;0.87;;;4.00;99.90;;;;;;5053406;28;20206;-45
2022/02/19 05:09:27;;;;;;;3.97;0.53;;;4.00;99.90;;;;;;5058841;28;20309;-45
2022/02/19 05:12:04;;;;;;;6.40;0.97;;;4.00;99.90;;;;;;5062625;28;20268;-43
2022/02/19 05:14:31;;;;;;;4.13;0.97;;;4.00;99.90;;;;;;5059566;28;20260;-43
2022/02/19 05:17:04;;;;;;;5.37;1.00;;;4.00;99.90;;;;;;5062224;28;20234;-46
2022/02/19 05:19:40;;;;;;;10.47;1.37;;;4.00;99.90;;;;;;5043038;28;20226;-44
2022/02/19 05:22:07;;;;;;;10.47;1.33;;;4.10;99.90;;;;;;5062140;28;20282;-43
2022/02/19 05:24:37;;;;;;;6.03;1.00;;;4.10;99.90;;;;;;5053407;28;20199;-43
2022/02/19 05:27:12;;;;;;;5.33;1.30;;;4.10;99.90;;;;;;5055696;28;20549;-46
2022/02/19 05:29:39;;;;;;;6.33;1.20;;;4.10;99.90;;;;;;5060547;28;20245;-45
2022/02/19 05:32:10;;;;;;;5.13;1.20;;;4.20;99.90;;;;;;5060405;28;20992;-43
2022/02/19 05:34:53;;;;;;;4.20;1.10;;;4.20;99.90;;;;;;5046183;28;20239;-47
2022/02/19 05:37:21;;;;;;;4.50;1.30;;;4.20;99.90;;;;;;5059538;28;20255;-46
2022/02/19 05:39:52;;;;;;;8.57;1.50;;;4.30;99.90;;;;;;5061929;28;20691;-48
2022/02/19 05:42:20;;;;;;;8.47;1.50;;;4.30;99.90;;;;;;5067417;28;20297;-49
2022/02/19 05:44:52;;;;;;;8.17;1.67;;;4.30;99.90;;;;;;5081434;28;20670;-46
2022/02/19 05:47:20;;;;;;;5.30;0.80;;;4.20;99.90;;;;;;5067999;28;20274;-43
2022/02/19 05:50:09;;;;;;;3.00;0.77;;;4.00;99.90;;;;;;5052775;28;20752;-48
2022/02/19 05:52:51;;;;;;;4.20;0.43;;;3.90;99.90;;;;;;5061248;28;20204;-43
2022/02/19 05:55:27;;;;;;;3.13;0.70;;;3.70;99.90;;;;;;5058570;28;20201;-45
2022/02/19 05:57:54;;;;;;;6.80;1.20;;;3.60;99.90;;;;;;5062020;28;20305;-44
2022/02/19 06:00:21;;;;;;;2.07;0.57;;;3.60;99.90;;;;;;5058752;28;20207;-48
2022/02/19 06:02:49;;;;;;;1.50;0.43;;;3.60;99.90;;;;;;5055977;28;20218;-47
2022/02/19 06:05:17;;;;;;;2.10;0.30;;;3.60;99.90;;;;;;5046452;28;20206;-47
2022/02/19 06:07:48;;;;;;;1.07;0.23;;;3.60;99.90;;;;;;5061979;28;20470;-44
2022/02/19 06:10:15;;;;;;;2.20;0.60;;;3.60;99.90;;;;;;5059910;28;20233;-51
2022/02/19 06:12:43;;;;;;;5.80;0.93;;;3.70;99.90;;;;;;5059960;28;20236;-44
2022/02/19 06:15:13;;;;;;;4.13;0.50;;;3.70;99.90;;;;;;5052381;28;20214;-45
2022/02/19 06:17:59;;;;;;;2.87;1.00;;;3.70;99.90;;;;;;5060244;28;20210;-47
2022/02/19 06:20:27;;;;;;;3.70;0.70;;;3.70;99.90;;;;;;5049925;28;20230;-44
2022/02/19 06:22:54;;;;;;;2.23;0.57;;;3.70;99.90;;;;;;5056648;28;20290;-44
2022/02/19 06:25:22;;;;;;;4.07;0.70;;;3.70;99.90;;;;;;5057454;28;20226;-48
2022/02/19 06:27:49;;;;;;;8.03;1.13;;;3.70;99.90;;;;;;5057597;28;20274;-47
2022/02/19 06:30:28;;;;;;;5.57;1.20;;;3.70;99.90;;;;;;5055440;28;20268;-45
2022/02/19 06:33:02;;;;;;;7.17;1.00;;;3.70;99.90;;;;;;5056136;28;20293;-46
2022/02/19 06:35:32;;;;;;;4.97;0.80;;;3.60;99.90;;;;;;5036750;28;20290;-45
2022/02/19 06:38:11;;;;;;;4.40;0.57;;;3.60;99.90;;;;;;5060583;28;20209;-45
2022/02/19 06:40:39;;;;;;;4.87;0.43;;;3.40;99.90;;;;;;5043679;28;20231;-46
2022/02/19 06:43:06;;;;;;;3.17;0.60;;;3.40;99.90;;;;;;5066809;28;20249;-44
2022/02/19 06:45:35;;;;;;;1.67;0.80;;;3.40;99.90;;;;;;5093073;28;20199;-45
2022/02/19 06:48:02;;;;;;;1.53;0.57;;;3.30;99.90;;;;;;5055105;28;20203;-45
2022/02/19 06:50:29;;;;;;;1.87;0.40;;;3.30;99.90;;;;;;5040773;28;20227;-46
2022/02/19 06:53:02;;;;;;;2.23;0.43;;;3.30;99.90;;;;;;5059152;28;20286;-49
2022/02/19 06:55:29;;;;;;;4.30;0.70;;;3.30;99.90;;;;;;5061277;28;20717;-46
2022/02/19 06:57:57;;;;;;;3.70;0.70;;;3.30;99.90;;;;;;5052948;28;20298;-48
2022/02/19 07:00:25;;;;;;;3.33;0.80;;;3.40;99.90;;;;;;5083542;28;20226;-47
2022/02/19 07:02:58;;;;;;;3.03;0.70;;;3.40;99.90;;;;;;5079524;28;20191;-47
2022/02/19 07:05:28;;;;;;;0.90;0.40;;;3.40;99.90;;;;;;5060363;28;20737;-45
2022/02/19 07:08:05;;;;;;;4.60;0.67;;;3.40;99.90;;;;;;5062388;28;20210;-47
2022/02/19 07:10:33;;;;;;;9.50;1.20;;;3.40;99.90;;;;;;5048769;28;20221;-45
2022/02/19 07:13:01;;;;;;;2.13;0.40;;;3.40;99.90;;;;;;5048264;28;20345;-44
2022/02/19 07:15:28;;;;;;;4.90;1.40;;;3.40;99.90;;;;;;5049781;28;20811;-48
2022/02/19 07:18:07;;;;;;;3.60;0.53;;;3.40;99.90;;;;;;5049611;28;20206;-45
2022/02/19 07:20:47;;;;;;;3.17;0.80;;;3.40;99.90;;;;;;5057824;28;20211;-42
2022/02/19 07:23:16;;;;;;;2.23;0.73;;;3.40;99.90;;;;;;5044570;28;20205;-43
2022/02/19 07:25:43;;;;;;;3.73;0.87;;;3.40;99.90;;;;;;5061284;28;20656;-43
2022/02/19 07:28:11;;;;;;;4.97;0.93;;;3.40;99.90;;;;;;5059948;28;20233;-41
2022/02/19 07:30:38;;;;;;;5.43;0.50;;;3.40;99.90;;;;;;5068323;28;20260;-41
2022/02/19 07:33:08;;;;;;;6.37;1.50;;;3.50;99.90;;;;;;5054406;28;20505;-45
2022/02/19 07:35:51;;;;;;;8.60;1.10;;;3.50;99.90;;;;;;5056431;28;20202;-42
2022/02/19 07:38:24;;;;;;;6.17;1.40;;;3.60;99.90;;;;;;5067473;28;20197;-44
2022/02/19 07:40:50;;;;;;;6.87;1.23;;;3.60;99.90;;;;;;5088948;28;20198;-43
2022/02/19 07:43:23;;;;;;;10.23;1.20;;;3.70;99.90;;;;;;5064298;28;20206;-39
2022/02/19 07:46:08;;;;;;;5.90;1.33;;;3.60;99.90;;;;;;5060277;28;20209;-44
2022/02/19 07:48:54;;;;;;;9.30;1.33;;;3.60;99.90;;;;;;5041849;28;20350;-41
2022/02/19 08:00:33;;;;;;;6.77;1.33;;;3.60;99.90;;;;;;5057274;28;20210;-39
2022/02/19 08:03:02;;;;;;;5.90;1.13;;;3.70;99.90;;;;;;5058816;28;20248;-40
2022/02/19 08:05:30;;;;;;;3.80;0.80;;;3.70;99.90;;;;;;5057991;28;20205;-39
2022/02/19 08:07:57;;;;;;;4.80;1.00;;;3.70;99.90;;;;;;5034972;28;21130;-39
2022/02/19 08:10:25;;;;;;;4.33;0.80;;;3.80;99.90;;;;;;5055201;28;20219;-40
2022/02/19 08:12:52;;;;;;;5.67;0.90;;;3.90;99.90;;;;;;5057640;28;20224;-39
2022/02/19 08:15:19;;;;;;;3.33;0.87;;;3.90;99.90;;;;;;5050686;28;20562;-39
2022/02/19 08:17:46;;;;;;;6.00;0.80;;;4.10;99.90;;;;;;5053643;28;20268;-39
2022/02/19 08:20:13;;;;;;;2.40;0.70;;;4.10;99.90;;;;;;5059783;28;20560;-39
2022/02/19 08:22:40;;;;;;;4.23;0.80;;;4.20;99.90;;;;;;5034669;28;20223;-39
2022/02/19 08:25:08;;;;;;;4.87;0.80;;;4.30;99.90;;;;;;5060250;28;20206;-39
2022/02/19 08:27:39;;;;;;;3.73;0.73;;;4.40;99.90;;;;;;5047192;28;20647;-39
2022/02/19 08:30:07;;;;;;;3.87;1.00;;;4.50;99.90;;;;;;5048541;28;20262;-42
2022/02/19 08:32:34;;;;;;;3.00;0.80;;;4.50;99.90;;;;;;5057913;28;20222;-39
2022/02/19 08:35:01;;;;;;;4.63;1.13;;;4.60;99.90;;;;;;5062248;28;20205;-38
2022/02/19 08:37:31;;;;;;;5.10;0.70;;;4.70;99.90;;;;;;5062025;28;20199;-44
2022/02/19 08:39:58;;;;;;;2.50;0.57;;;4.80;99.90;;;;;;5046956;28;20207;-41
2022/02/19 08:42:25;;;;;;;3.40;0.73;;;4.80;99.90;;;;;;5073030;28;20194;-40
2022/02/19 08:44:53;;;;;;;4.87;1.37;;;4.80;99.90;;;;;;5066675;28;20206;-40
2022/02/19 08:47:19;;;;;;;1.57;0.57;;;4.80;99.90;;;;;;5063273;28;20655;-39
2022/02/19 08:49:46;;;;;;;3.73;0.53;;;4.80;99.90;;;;;;5056111;28;20968;-38
2022/02/19 08:52:13;;;;;;;1.07;0.83;;;4.70;99.90;;;;;;5055310;28;20222;-40
2022/02/19 08:54:40;;;;;;;3.93;0.90;;;4.70;99.90;;;;;;5033346;28;20213;-39
2022/02/19 08:57:07;;;;;;;2.37;0.90;;;4.70;99.90;;;;;;5062833;28;20222;-39
2022/02/19 08:59:34;;;;;;;3.90;1.37;;;4.70;99.90;;;;;;5059204;28;20223;-40
2022/02/19 09:02:02;;;;;;;3.57;1.10;;;4.60;99.90;;;;;;5055324;28;20206;-39
2022/02/19 09:04:29;;;;;;;4.43;1.43;;;4.60;99.90;;;;;;5055496;28;20213;-41
2022/02/19 09:06:56;;;;;;;3.20;0.80;;;4.60;99.90;;;;;;5057128;28;20198;-40
2022/02/19 09:09:23;;;;;;;1.83;1.40;;;4.60;99.90;;;;;;5048567;28;21036;-39
2022/02/19 09:11:49;;;;;;;1.73;1.23;;;4.60;99.90;;;;;;5043276;28;20218;-42
2022/02/19 09:14:16;;;;;;;3.77;0.93;;;4.60;99.90;;;;;;5056263;28;20195;-40
2022/02/19 09:16:43;;;;;;;5.47;1.27;;;4.70;99.90;;;;;;5061327;28;20198;-40
2022/02/19 09:19:11;;;;;;;2.30;1.00;;;4.70;99.90;;;;;;5048925;28;21095;-39
2022/02/19 09:21:40;;;;;;;0.67;0.53;;;4.70;99.90;;;;;;5055978;28;20195;-44
2022/02/19 09:24:07;;;;;;;1.53;0.50;;;4.70;99.90;;;;;;5053794;28;20206;-42
2022/02/19 09:26:34;;;;;;;0.57;0.30;;;4.50;99.90;;;;;;5047868;28;20212;-40
2022/02/19 09:29:00;;;;;;;1.17;0.40;;;4.50;99.90;;;;;;5064201;28;20215;-38
2022/02/19 09:31:27;;;;;;;0.80;0.30;;;4.40;99.90;;;;;;5053715;28;20221;-41
2022/02/19 09:33:54;;;;;;;2.10;0.50;;;4.30;99.90;;;;;;5055037;28;20202;-38
2022/02/19 09:36:22;;;;;;;2.57;0.47;;;4.30;99.90;;;;;;5053151;28;20209;-45
2022/02/19 09:38:49;;;;;;;0.73;0.30;;;4.20;99.90;;;;;;5055507;28;20230;-39
2022/02/19 09:41:16;;;;;;;2.00;0.30;;;4.20;99.90;;;;;;5041989;28;20211;-44
2022/02/19 09:43:43;;;;;;;2.00;0.37;;;4.20;99.90;;;;;;5054128;28;20206;-39
2022/02/19 09:46:14;;;;;;;0.30;0.30;;;4.00;99.90;;;;;;5062461;28;20205;-42
2022/02/19 09:48:43;;;;;;;1.90;0.20;;;4.00;99.90;;;;;;5060242;28;20292;-46
2022/02/19 09:51:11;;;;;;;1.20;0.40;;;3.90;99.90;;;;;;5053739;28;20197;-44
2022/02/19 09:53:40;;;;;;;0.87;0.47;;;3.80;99.90;;;;;;5052267;28;20191;-47
2022/02/19 09:56:07;;;;;;;0.63;0.20;;;3.70;99.90;;;;;;5036724;28;20214;-44
2022/02/19 09:58:34;;;;;;;1.17;0.20;;;3.70;99.90;;;;;;5062389;28;20297;-39
2022/02/19 10:01:16;;;;;;;0.97;0.37;;;3.70;99.90;;;;;;5056360;28;20240;-39
2022/02/19 10:03:44;;;;;;;2.40;0.60;;;3.70;99.90;;;;;;5055732;28;20204;-41
2022/02/19 10:06:12;;;;;;;0.97;0.50;;;3.60;99.90;;;;;;5053381;28;20962;-40
2022/02/19 10:08:41;;;;;;;0.80;0.47;;;3.70;99.90;;;;;;5058215;28;20274;-41
2022/02/19 10:11:13;;;;;;;2.20;0.50;;;3.60;99.90;;;;;;5052753;28;20214;-42
2022/02/19 10:13:41;;;;;;;0.77;0.30;;;3.50;99.90;;;;;;5048255;28;20302;-39
2022/02/19 10:16:10;;;;;;;1.27;0.30;;;3.40;99.90;;;;;;5057861;28;20197;-39
2022/02/19 10:18:38;;;;;;;3.20;0.73;;;3.30;99.90;;;;;;5065369;28;20236;-41
2022/02/19 10:21:13;;;;;;;1.10;0.47;;;3.20;99.90;;;;;;5055427;28;20190;-40
2022/02/19 10:23:44;;;;;;;3.40;0.60;;;3.20;99.90;;;;;;5050855;28;20203;-42
2022/02/19 10:26:12;;;;;;;5.30;0.90;;;3.20;99.90;;;;;;5059089;28;20209;-41
2022/02/19 10:28:39;;;;;;;1.10;0.40;;;3.20;99.90;;;;;;5048001;28;20218;-40
2022/02/19 10:31:15;;;;;;;3.73;0.70;;;3.30;99.90;;;;;;5058758;28;20214;-40
2022/02/19 10:33:43;;;;;;;1.87;0.43;;;3.40;99.90;;;;;;5062392;28;20218;-42
2022/02/19 10:36:15;;;;;;;3.57;0.67;;;3.50;99.90;;;;;;5066191;28;20198;-41
2022/02/19 10:38:54;;;;;;;2.63;0.70;;;3.50;99.90;;;;;;5063665;28;20232;-39
2022/02/19 10:41:32;;;;;;;2.87;0.60;;;3.60;99.90;;;;;;5060119;28;20210;-40
2022/02/19 10:44:00;;;;;;;1.93;0.70;;;3.80;99.90;;;;;;5051501;28;20674;-40
2022/02/19 10:46:27;;;;;;;4.87;1.17;;;4.00;99.90;;;;;;5051213;28;20209;-40
2022/02/19 10:48:54;;;;;;;7.90;1.30;;;4.10;99.90;;;;;;5058911;28;20229;-43
2022/02/19 10:51:21;;;;;;;3.73;1.23;;;4.20;99.90;;;;;;5065125;28;20198;-40
2022/02/19 10:53:58;;;;;;;4.17;1.00;;;4.20;99.90;;;;;;5063769;28;21002;-41
2022/02/19 10:56:25;;;;;;;3.87;1.20;;;4.40;99.90;;;;;;5044388;28;21648;-40
2022/02/19 10:58:59;;;;;;;5.13;1.37;;;4.50;99.90;;;;;;5055986;28;20215;-39
2022/02/19 11:01:26;;;;;;;4.63;1.80;;;4.60;99.90;;;;;;5050472;28;20206;-42
2022/02/19 11:03:53;;;;;;;8.10;1.60;;;4.80;99.90;;;;;;5065881;28;20241;-41
2022/02/19 11:06:21;;;;;;;5.90;1.90;;;4.90;99.90;;;;;;5062608;28;20206;-41
2022/02/19 11:08:48;;;;;;;5.67;2.03;;;5.00;99.90;;;;;;5072448;28;20222;-41
2022/02/19 11:11:17;;;;;;;6.47;1.80;;;5.10;99.90;;;;;;5065474;28;20198;-45
2022/02/19 11:13:46;;;;;;;2.90;1.47;;;5.10;99.90;;;;;;5050231;28;20348;-42
2022/02/19 11:16:13;;;;;;;5.73;1.47;;;5.20;99.90;;;;;;5059981;28;20214;-48
2022/02/19 11:18:39;;;;;;;5.13;1.40;;;5.30;99.90;;;;;;5061283;28;20401;-43
2022/02/19 11:21:07;;;;;;;5.40;1.17;;;5.30;99.90;;;;;;5064375;28;20278;-45
2022/02/19 11:23:36;;;;;;;3.03;1.50;;;5.30;99.90;;;;;;5071283;28;20189;-40
2022/02/19 11:26:03;;;;;;;13.53;2.07;;;5.30;99.90;;;;;;5064528;28;20210;-42
2022/02/19 11:28:34;;;;;;;11.67;1.40;;;5.30;99.90;;;;;;5067859;28;20884;-40
2022/02/19 11:31:04;;;;;;;4.13;1.53;;;5.40;99.90;;;;;;5050261;28;20209;-40
2022/02/19 11:33:33;;;;;;;4.60;1.07;;;5.40;99.90;;;;;;5055608;28;20249;-46
2022/02/19 11:36:03;;;;;;;7.27;1.20;;;5.40;99.90;;;;;;5064977;28;20213;-41
2022/02/19 11:38:32;;;;;;;10.40;1.50;;;5.50;99.90;;;;;;5061012;28;20431;-44
2022/02/19 11:41:01;;;;;;;4.60;1.40;;;5.50;99.90;;;;;;5062901;28;20199;-44
2022/02/19 11:43:40;;;;;;;5.03;2.13;;;5.60;99.90;;;;;;5061067;28;20179;-46
2022/02/19 11:46:32;;;;;;;6.87;1.20;;;5.60;99.90;;;;;;5046020;28;20575;-53
2022/02/19 11:49:17;;;;;;;5.80;1.90;;;5.60;99.90;;;;;;5048671;28;20237;-43
2022/02/19 11:51:44;;;;;;;4.77;1.53;;;5.70;99.90;;;;;;5063637;28;20194;-42
2022/02/19 11:54:25;;;;;;;5.53;1.00;;;5.70;99.90;;;;;;5062896;28;20226;-48
2022/02/19 11:56:52;;;;;;;4.03;0.70;;;5.80;99.90;;;;;;5066565;28;20194;-43
2022/02/19 11:59:23;;;;;;;2.93;0.90;;;5.80;99.90;;;;;;5066537;28;20222;-43
2022/02/19 12:02:12;;;;;;;6.53;1.10;;;5.80;99.90;;;;;;5058553;28;20279;-42
2022/02/19 12:04:40;;;;;;;2.63;0.83;;;5.90;99.90;;;;;;5059682;28;20198;-42
2022/02/19 12:07:12;;;;;;;3.47;0.77;;;5.80;99.90;;;;;;5061205;28;20206;-46
2022/02/19 12:10:02;;;;;;;7.03;0.80;;;5.90;99.90;;;;;;5069167;28;20218;-42
2022/02/19 12:12:28;;;;;;;4.57;0.80;;;5.80;99.90;;;;;;5053101;28;20928;-42
2022/02/19 12:15:02;;;;;;;2.23;0.80;;;5.90;99.90;;;;;;5064531;28;20187;-43
2022/02/19 12:17:46;;;;;;;2.40;0.47;;;5.90;99.90;;;;;;5042100;28;20207;-45
2022/02/19 12:20:31;;;;;;;3.00;0.60;;;6.00;99.90;;;;;;5054280;28;20563;-45
2022/02/19 12:23:02;;;;;;;1.83;0.70;;;5.90;99.90;;;;;;5061483;28;20194;-46
2022/02/19 12:26:03;;;;;;;3.30;0.90;;;6.00;99.90;;;;;;5059101;28;20235;-40
2022/02/19 12:28:30;;;;;;;2.37;0.70;;;5.90;99.90;;;;;;5069598;28;20867;-44
2022/02/19 12:31:17;;;;;;;4.83;0.77;;;5.90;99.90;;;;;;5053524;28;20709;-43
2022/02/19 12:33:47;;;;;;;5.70;1.20;;;5.90;99.90;;;;;;5064375;28;20218;-43
2022/02/19 12:36:14;;;;;;;4.00;1.07;;;5.90;99.90;;;;;;5050857;28;20202;-50
2022/02/19 12:38:45;;;;;;;5.27;1.50;;;5.90;99.90;;;;;;5062242;28;20225;-43
2022/02/19 12:41:12;;;;;;;4.13;1.13;;;5.90;99.90;;;;;;5062542;28;20214;-46
2022/02/19 12:43:39;;;;;;;6.60;1.33;;;6.00;99.90;;;;;;5056461;28;20201;-47
2022/02/19 12:46:06;;;;;;;4.27;1.23;;;6.10;99.90;;;;;;5059470;28;20190;-51
2022/02/19 12:48:34;;;;;;;5.53;1.53;;;6.20;99.90;;;;;;5056513;28;20959;-47
2022/02/19 12:51:02;;;;;;;8.37;1.73;;;6.30;99.90;;;;;;5052530;28;20215;-50
2022/02/19 12:53:29;;;;;;;4.23;1.20;;;6.30;99.90;;;;;;5064055;28;20245;-46
2022/02/19 12:55:57;;;;;;;7.20;1.77;;;6.40;99.90;;;;;;5067183;28;20550;-48
2022/02/19 12:58:25;;;;;;;6.30;1.37;;;6.50;99.90;;;;;;5054908;28;20298;-40
2022/02/19 13:00:53;;;;;;;4.77;1.20;;;6.60;99.90;;;;;;5074610;28;20202;-40
2022/02/19 13:03:20;;;;;;;5.57;1.50;;;6.80;99.90;;;;;;5046603;28;20198;-41
2022/02/19 13:05:53;;;;;;;8.30;1.30;;;7.00;99.90;;;;;;5057996;28;20211;-40
2022/02/19 13:08:20;;;;;;;5.57;1.37;;;7.00;99.90;;;;;;5061391;28;20214;-43
2022/02/19 13:10:48;;;;;;;7.40;1.80;;;7.00;99.90;;;;;;5066084;28;20225;-41
2022/02/19 13:13:16;;;;;;;6.00;1.33;;;6.90;99.90;;;;;;5060699;28;20695;-41
2022/02/19 13:15:43;;;;;;;8.07;1.97;;;6.80;99.90;;;;;;5061315;28;20195;-40
2022/02/19 13:18:10;;;;;;;3.87;1.27;;;6.80;99.90;;;;;;5047787;28;20207;-40